Time;durP1;ratioP1;P1;durP2;ratioP2;P2;SDS_P1;SDS_P2;PMS_P1;PMS_P2;Temp;Humidity;BMP_temperature;BMP_pressure;BME280_temperature;BME280_humidity;BME280_pressure;Samples;Min_cycle;Max_cycle;Signal;HPM_P1;HPM_P2
2021/05/07 00:00:15;;;;;;;3.17;2.80;;;;;;;6.79;100.00;98086.03;10498262;28;20269;-77
2021/05/07 00:05:34;;;;;;;3.47;2.30;;;;;;;6.75;100.00;98079.03;10498641;28;20254;-76
2021/05/07 00:10:57;;;;;;;3.17;1.77;;;;;;;6.69;100.00;98075.91;10498990;28;20238;-76
2021/05/07 00:16:17;;;;;;;5.57;2.30;;;;;;;6.71;100.00;98078.25;10497686;28;20193;-76
2021/05/07 00:21:37;;;;;;;4.17;2.53;;;;;;;6.78;100.00;98061.84;10498959;28;20170;-76
2021/05/07 00:26:56;;;;;;;2.93;1.80;;;;;;;6.88;100.00;98078.19;10497323;28;20214;-76
2021/05/07 00:32:16;;;;;;;5.37;2.73;;;;;;;6.92;100.00;98089.09;10496858;28;20688;-76
2021/05/07 00:37:34;;;;;;;2.60;1.73;;;;;;;6.94;100.00;98084.78;10497262;28;20584;-76
2021/05/07 00:42:54;;;;;;;2.53;2.33;;;;;;;6.94;100.00;98103.13;10497203;28;20182;-76
2021/05/07 00:48:16;;;;;;;2.77;2.57;;;;;;;6.99;100.00;98095.28;10496527;28;20178;-77
2021/05/07 00:53:36;;;;;;;3.47;2.90;;;;;;;6.99;100.00;98108.19;10497642;28;20665;-78
2021/05/07 00:58:55;;;;;;;2.87;2.67;;;;;;;6.87;100.00;98114.09;10496699;28;20174;-78
2021/05/07 01:04:15;;;;;;;1.60;1.47;;;;;;;6.79;100.00;98123.50;10495907;28;20187;-76
2021/05/07 01:09:34;;;;;;;8.83;2.07;;;;;;;6.79;100.00;98120.75;10496591;28;20182;-77
2021/05/07 01:15:14;;;;;;;3.03;2.03;;;;;;;6.70;100.00;98117.72;10496466;28;20202;-76
2021/05/07 01:20:34;;;;;;;1.20;0.87;;;;;;;6.70;100.00;98107.53;10496450;28;20542;-77
2021/05/07 01:25:55;;;;;;;1.40;0.90;;;;;;;6.60;100.00;98121.25;10497008;28;20230;-77
2021/05/07 01:31:14;;;;;;;2.87;1.77;;;;;;;6.61;100.00;98117.34;10495662;28;20206;-76
2021/05/07 01:36:33;;;;;;;1.20;0.87;;;;;;;6.61;100.00;98128.28;10497110;28;20325;-77
2021/05/07 01:41:51;;;;;;;3.03;1.20;;;;;;;6.70;100.00;98131.38;10496911;28;20207;-76
2021/05/07 01:47:10;;;;;;;1.50;1.40;;;;;;;6.62;100.00;98132.56;10494576;28;20641;-75
2021/05/07 01:52:29;;;;;;;1.60;1.50;;;;;;;6.52;100.00;98136.13;10496258;28;20581;-76
2021/05/07 01:57:48;;;;;;;1.10;0.87;;;;;;;6.45;100.00;98144.34;10495598;28;20202;-76
2021/05/07 02:03:08;;;;;;;2.60;2.03;;;;;;;6.47;100.00;98152.88;10495126;28;20171;-76
2021/05/07 02:08:27;;;;;;;1.30;1.20;;;;;;;6.50;100.00;98165.78;10495636;28;20167;-77
2021/05/07 02:13:45;;;;;;;1.97;1.73;;;;;;;6.52;100.00;98166.16;10500118;28;20206;-79
2021/05/07 02:19:04;;;;;;;5.50;1.50;;;;;;;6.43;100.00;98172.03;10501429;28;20167;-80
2021/05/07 02:24:24;;;;;;;1.30;1.20;;;;;;;6.33;100.00;98172.06;10502614;28;20179;-79
2021/05/07 02:29:43;;;;;;;3.33;1.97;;;;;;;6.36;100.00;98174.00;10502524;28;20689;-78
2021/05/07 02:35:06;;;;;;;5.93;2.10;;;;;;;6.25;100.00;98177.94;10502056;28;20537;-78
2021/05/07 02:40:25;;;;;;;5.43;2.03;;;;;;;6.22;100.00;98171.28;10501777;28;20179;-79
2021/05/07 02:45:44;;;;;;;5.57;3.80;;;;;;;6.11;100.00;98173.25;10501372;28;20668;-76
2021/05/07 02:51:03;;;;;;;3.03;2.73;;;;;;;6.11;100.00;98181.44;10501342;28;20214;-79
2021/05/07 02:56:22;;;;;;;2.63;2.40;;;;;;;6.13;100.00;98186.50;10501468;28;20178;-77
2021/05/07 03:01:42;;;;;;;4.43;2.90;;;;;;;6.16;100.00;98191.97;10500843;28;20171;-77
2021/05/07 03:07:01;;;;;;;2.13;1.80;;;;;;;6.13;100.00;98183.78;10501928;28;20241;-78
2021/05/07 03:12:20;;;;;;;3.33;2.30;;;;;;;6.17;100.00;98201.72;10500450;28;20214;-77
2021/05/07 03:17:39;;;;;;;3.43;1.63;;;;;;;6.12;100.00;98195.88;10499195;28;20191;-76
2021/05/07 03:22:58;;;;;;;2.57;2.00;;;;;;;6.04;100.00;98203.31;10500463;28;20179;-76
2021/05/07 03:28:17;;;;;;;3.53;1.67;;;;;;;6.02;100.00;98204.84;10499527;28;20596;-79
2021/05/07 03:33:37;;;;;;;1.90;1.23;;;;;;;5.90;100.00;98213.44;10499120;28;20202;-77
2021/05/07 03:38:57;;;;;;;5.70;1.00;;;;;;;5.86;100.00;98224.34;10500706;28;20182;-77
2021/05/07 03:44:15;;;;;;;3.50;2.27;;;;;;;5.94;100.00;98220.44;10500464;28;20214;-77
2021/05/07 03:49:35;;;;;;;2.83;1.67;;;;;;;5.97;100.00;98233.34;10498735;28;20266;-77
2021/05/07 03:54:54;;;;;;;1.57;1.23;;;;;;;5.98;100.00;98242.28;10498993;28;20206;-77
2021/05/07 04:00:13;;;;;;;1.40;1.30;;;;;;;6.02;100.00;98238.38;10498279;28;20445;-76
2021/05/07 04:05:33;;;;;;;3.13;2.10;;;;;;;6.11;100.00;98240.72;10498409;28;20562;-77
2021/05/07 04:11:07;;;;;;;1.40;1.13;;;;;;;6.07;100.00;98248.16;10498107;28;20281;-76
2021/05/07 04:16:26;;;;;;;1.77;1.60;;;;;;;5.99;100.00;98260.22;10496704;28;20202;-75
2021/05/07 04:21:45;;;;;;;0.87;0.70;;;;;;;6.01;100.00;98269.59;10498906;28;20178;-77
2021/05/07 04:27:04;;;;;;;2.00;1.33;;;;;;;5.98;100.00;98267.63;10498208;28;20227;-76
2021/05/07 04:32:23;;;;;;;2.20;1.53;;;;;;;6.01;100.00;98280.50;10495903;28;20586;-75
2021/05/07 04:37:42;;;;;;;1.37;1.27;;;;;;;5.98;100.00;98286.72;10498085;28;20174;-76
2021/05/07 04:43:01;;;;;;;1.53;1.43;;;;;;;6.06;100.00;98303.91;10497941;28;20190;-76
2021/05/07 04:48:20;;;;;;;2.50;1.70;;;;;;;6.20;100.00;98314.84;10496696;28;20171;-76
2021/05/07 04:53:39;;;;;;;3.40;2.77;;;;;;;6.30;100.00;98328.50;10496124;28;20202;-78
2021/05/07 04:58:58;;;;;;;3.23;1.87;;;;;;;6.32;100.00;98339.06;10497971;28;20206;-80
2021/05/07 05:04:17;;;;;;;2.67;2.30;;;;;;;6.38;100.00;98346.47;10495437;28;20179;-77
2021/05/07 05:09:37;;;;;;;9.50;2.10;;;;;;;6.21;100.00;98355.44;10497443;28;20182;-78
2021/05/07 05:14:56;;;;;;;4.17;2.33;;;;;;;6.08;100.00;98367.88;10496346;28;20174;-79
2021/05/07 05:20:15;;;;;;;10.40;2.10;;;;;;;6.06;100.00;98370.19;10496488;28;20175;-75
2021/05/07 05:25:34;;;;;;;1.47;1.13;;;;;;;5.98;100.00;98382.28;10497001;28;20167;-78
2021/05/07 05:30:54;;;;;;;2.20;2.00;;;;;;;5.92;100.00;98394.75;10494892;28;20206;-79
2021/05/07 05:36:13;;;;;;;2.60;1.97;;;;;;;6.10;100.00;98401.03;10497115;28;20178;-76
2021/05/07 05:41:32;;;;;;;1.13;1.03;;;;;;;6.21;100.00;98418.25;10497123;28;20625;-75
2021/05/07 05:46:51;;;;;;;2.77;2.57;;;;;;;6.29;100.00;98421.75;10497316;28;20591;-77
2021/05/07 05:52:11;;;;;;;5.37;1.73;;;;;;;6.32;100.00;98437.38;10504388;28;20664;-77
2021/05/07 05:57:31;;;;;;;4.30;1.90;;;;;;;6.34;100.00;98452.97;10504670;28;20183;-78
2021/05/07 06:02:49;;;;;;;1.50;1.20;;;;;;;6.39;100.00;98449.09;10503069;28;20167;-77
2021/05/07 06:08:08;;;;;;;2.87;1.47;;;;;;;6.26;100.00;98455.31;10503121;28;20182;-77
2021/05/07 06:13:27;;;;;;;5.50;1.47;;;;;;;6.25;100.00;98459.22;10503432;28;20206;-76
2021/05/07 06:18:46;;;;;;;1.50;1.40;;;;;;;6.14;100.00;98461.88;10501717;28;20175;-76
2021/05/07 06:24:05;;;;;;;5.03;2.90;;;;;;;6.16;100.00;98469.72;10503632;28;20214;-77
2021/05/07 06:29:26;;;;;;;1.73;1.63;;;;;;;5.93;100.00;98475.47;10501868;28;20297;-76
2021/05/07 06:34:45;;;;;;;3.30;2.20;;;;;;;6.16;100.00;98478.69;10501075;28;20572;-75
2021/05/07 06:40:06;;;;;;;1.33;1.23;;;;;;;6.88;100.00;98484.69;10503058;28;20171;-77
2021/05/07 06:45:25;;;;;;;3.20;3.00;;;;;;;7.28;100.00;98496.81;10500606;28;20183;-77
2021/05/07 06:50:44;;;;;;;1.67;1.57;;;;;;;7.30;100.00;98494.47;10502287;28;20238;-79
2021/05/07 06:56:03;;;;;;;2.80;2.10;;;;;;;7.62;100.00;98497.97;10502375;28;20633;-77
2021/05/07 07:01:22;;;;;;;2.20;1.80;;;;;;;7.55;100.00;98505.41;10499777;28;20186;-78
2021/05/07 07:06:41;;;;;;;2.23;2.03;;;;;;;7.63;100.00;98502.28;10502033;28;20661;-77
2021/05/07 07:12:00;;;;;;;4.73;1.97;;;;;;;8.22;100.00;98495.88;10501405;28;20210;-79
2021/05/07 07:17:19;;;;;;;6.53;2.40;;;;;;;7.59;100.00;98506.19;10500425;28;20266;-77
2021/05/07 07:22:38;;;;;;;2.83;1.70;;;;;;;8.18;100.00;98517.03;10501386;28;20174;-80
2021/05/07 07:27:57;;;;;;;1.63;1.43;;;;;;;7.78;99.47;98520.22;10500768;28;20223;-78
2021/05/07 07:33:16;;;;;;;1.60;1.37;;;;;;;7.70;97.11;98532.38;10499161;28;20206;-77
2021/05/07 07:38:35;;;;;;;1.50;1.40;;;;;;;8.10;95.06;98537.38;10499568;28;20189;-79
2021/05/07 07:43:54;;;;;;;2.13;1.33;;;;;;;8.32;88.28;98544.38;10500473;28;20170;-77
2021/05/07 07:49:13;;;;;;;3.80;2.70;;;;;;;9.10;86.27;98543.56;10498885;28;20645;-77
2021/05/07 07:54:32;;;;;;;1.37;1.23;;;;;;;8.24;84.90;98553.78;10498287;28;20665;-79
2021/05/07 07:59:50;;;;;;;3.53;3.23;;;;;;;7.94;90.79;98573.41;10498580;28;20618;-77
2021/05/07 08:05:10;;;;;;;1.53;1.40;;;;;;;8.60;85.33;98577.94;10498691;28;20182;-75
2021/05/07 08:10:30;;;;;;;2.47;2.27;;;;;;;8.74;84.26;98575.91;10498705;28;20289;-75
2021/05/07 08:15:48;;;;;;;1.53;1.40;;;;;;;9.22;65.06;98589.75;10496908;28;20174;-75
2021/05/07 08:21:08;;;;;;;3.90;3.03;;;;;;;8.77;66.40;98588.84;10498974;28;20175;-75
2021/05/07 08:26:27;;;;;;;2.50;1.93;;;;;;;8.72;68.91;98605.69;10498396;28;20223;-76
2021/05/07 08:31:46;;;;;;;2.33;1.63;;;;;;;8.44;68.80;98617.94;10495950;28;20206;-74
2021/05/07 08:37:05;;;;;;;4.07;3.67;;;;;;;8.64;71.49;98625.31;10498211;28;20175;-74
2021/05/07 08:42:24;;;;;;;7.93;3.67;;;;;;;9.78;65.98;98631.28;10497264;28;20587;-76
2021/05/07 08:47:43;;;;;;;5.00;2.90;;;;;;;9.60;62.48;98625.94;10495779;28;20178;-75
2021/05/07 08:53:03;;;;;;;8.13;3.07;;;;;;;10.31;64.44;98643.41;10496713;28;20214;-75
2021/05/07 08:58:22;;;;;;;3.77;2.90;;;;;;;10.89;64.07;98656.94;10497988;28;20182;-74
2021/05/07 09:03:45;;;;;;;7.73;2.87;;;;;;;10.04;66.55;98661.75;10496638;28;20174;-73
2021/05/07 09:09:15;;;;;;;4.43;3.27;;;;;;;9.76;65.74;98667.41;10497675;28;20178;-74
2021/05/07 09:14:34;;;;;;;5.40;4.90;;;;;;;9.75;64.92;98678.81;10495940;28;20206;-75
2021/05/07 09:20:11;;;;;;;3.27;2.97;;;;;;;10.65;58.70;98669.00;10496822;28;20170;-74
2021/05/07 09:25:30;;;;;;;3.23;1.93;;;;;;;11.27;53.59;98667.44;10504072;28;20191;-75
2021/05/07 09:30:49;;;;;;;2.50;2.30;;;;;;;10.84;58.56;98682.91;10503417;28;20202;-75
2021/05/07 09:36:09;;;;;;;3.90;2.10;;;;;;;11.72;55.22;98668.78;10505609;28;20641;-75
2021/05/07 09:41:42;;;;;;;4.00;2.43;;;;;;;10.47;55.95;98693.94;10505534;28;20182;-74
2021/05/07 09:47:13;;;;;;;9.60;3.30;;;;;;;10.17;57.17;98692.25;10503835;28;20633;-76
2021/05/07 09:52:32;;;;;;;3.60;3.30;;;;;;;11.53;52.18;98691.53;10504537;28;20203;-74
2021/05/07 09:57:52;;;;;;;4.67;2.27;;;;;;;11.46;52.75;98692.38;10504816;28;20183;-73
2021/05/07 10:03:11;;;;;;;6.83;4.50;;;;;;;12.07;51.66;98680.84;10503240;28;20170;-74
2021/05/07 10:08:31;;;;;;;5.80;2.63;;;;;;;11.87;47.33;98706.75;10504203;28;20174;-74
2021/05/07 10:13:52;;;;;;;3.70;2.33;;;;;;;11.94;48.67;98701.94;10502438;28;20209;-74
2021/05/07 10:19:12;;;;;;;3.50;3.10;;;;;;;11.71;50.03;98703.09;10501665;28;20175;-73
2021/05/07 10:24:36;;;;;;;5.63;3.00;;;;;;;11.31;48.91;98713.03;10503651;28;20202;-74
2021/05/07 10:29:56;;;;;;;3.33;2.70;;;;;;;12.32;47.98;98716.28;10501310;28;20223;-74
2021/05/07 10:35:16;;;;;;;3.83;2.57;;;;;;;12.54;46.20;98715.50;10502003;28;20183;-73
2021/05/07 10:40:34;;;;;;;2.20;1.60;;;;;;;12.15;45.29;98720.13;10503094;28;20626;-73
2021/05/07 10:45:53;;;;;;;1.50;1.40;;;;;;;12.72;45.05;98710.44;10500780;28;20179;-73
2021/05/07 10:51:15;;;;;;;2.87;2.67;;;;;;;12.45;45.71;98726.28;10502422;28;20210;-73
2021/05/07 10:56:37;;;;;;;3.40;2.50;;;;;;;12.51;46.42;98730.16;10502479;28;20175;-74
2021/05/07 11:02:01;;;;;;;4.63;2.80;;;;;;;12.63;44.62;98729.53;10501012;28;20625;-73
2021/05/07 11:07:30;;;;;;;4.70;2.87;;;;;;;13.51;45.50;98714.81;10501020;28;20625;-74
2021/05/07 11:12:49;;;;;;;1.90;1.47;;;;;;;13.61;45.12;98723.66;10501495;28;20210;-74
2021/05/07 11:18:10;;;;;;;2.50;2.30;;;;;;;14.32;42.27;98740.22;10500239;28;20633;-73
2021/05/07 11:23:30;;;;;;;2.43;2.13;;;;;;;13.20;43.57;98736.38;10500382;28;20194;-73
2021/05/07 11:28:49;;;;;;;5.60;2.83;;;;;;;12.34;44.58;98756.06;10500590;28;20230;-74
2021/05/07 11:34:08;;;;;;;2.77;2.40;;;;;;;12.15;46.94;98751.22;10498198;28;20676;-76
2021/05/07 11:39:27;;;;;;;7.17;3.47;;;;;;;11.03;49.40;98762.13;10500666;28;20613;-74
2021/05/07 11:44:49;;;;;;;1.63;1.37;;;;;;;11.17;50.46;98784.00;10498505;28;20628;-76
2021/05/07 11:50:09;;;;;;;1.60;1.20;;;;;;;10.74;52.91;98824.13;10500115;28;20179;-74
2021/05/07 11:55:31;;;;;;;1.90;1.70;;;;;;;8.76;69.76;98910.09;10500196;28;20179;-75
2021/05/07 12:00:53;;;;;;;1.10;0.83;;;;;;;7.25;89.71;98948.22;10498582;28;20179;-73
2021/05/07 12:06:25;;;;;;;0.80;0.50;;;;;;;6.01;100.00;98989.56;10499455;28;20170;-73
2021/05/07 12:11:54;;;;;;;0.90;0.60;;;;;;;5.45;100.00;99007.06;10498078;28;20238;-73
2021/05/07 12:17:14;;;;;;;1.70;1.07;;;;;;;5.00;100.00;99009.84;10498073;28;20191;-73
2021/05/07 12:22:33;;;;;;;2.70;1.13;;;;;;;5.07;100.00;99001.78;10498882;28;20175;-74
2021/05/07 12:27:54;;;;;;;1.40;1.27;;;;;;;5.71;100.00;98996.91;10497299;28;20687;-74
2021/05/07 12:33:21;;;;;;;3.07;1.27;;;;;;;6.24;100.00;98985.53;10495903;28;20214;-74
2021/05/07 12:38:42;;;;;;;1.20;0.90;;;;;;;7.10;100.00;98975.84;10496871;28;20209;-74
2021/05/07 12:44:01;;;;;;;4.40;1.00;;;;;;;8.50;100.00;98981.75;10497324;28;20542;-77
2021/05/07 12:49:21;;;;;;;1.23;1.13;;;;;;;9.22;100.00;98993.97;10495829;28;20178;-76
2021/05/07 12:54:40;;;;;;;1.00;0.70;;;;;;;8.83;100.00;99009.59;10496557;28;20206;-78
2021/05/07 12:59:59;;;;;;;1.30;0.90;;;;;;;10.00;100.00;98987.22;10496704;28;20191;-78
2021/05/07 13:05:18;;;;;;;1.67;1.07;;;;;;;11.06;100.00;98980.75;10496805;28;20179;-78
2021/05/07 13:10:36;;;;;;;1.47;1.33;;;;;;;11.77;95.72;98980.53;10497300;28;20288;-78
2021/05/07 13:15:55;;;;;;;0.90;0.60;;;;;;;11.72;84.51;98988.44;10494992;28;20618;-77
2021/05/07 13:21:14;;;;;;;1.37;0.97;;;;;;;10.57;93.16;99011.31;10497241;28;20182;-76
2021/05/07 13:26:33;;;;;;;1.10;0.70;;;;;;;10.38;91.13;99000.78;10496906;28;20226;-75
2021/05/07 13:31:52;;;;;;;1.77;1.00;;;;;;;10.77;93.36;99010.41;10494540;28;20222;-75
2021/05/07 13:37:11;;;;;;;0.90;0.60;;;;;;;11.27;89.47;99011.66;10496130;28;20553;-75
2021/05/07 13:42:30;;;;;;;2.00;1.17;;;;;;;11.72;90.68;99011.28;10495938;28;20179;-76
2021/05/07 13:47:49;;;;;;;0.87;0.60;;;;;;;11.09;85.82;99022.00;10495588;28;20170;-75
2021/05/07 13:53:09;;;;;;;1.67;1.03;;;;;;;11.68;85.97;99016.03;10496397;28;20207;-74
2021/05/07 13:58:28;;;;;;;1.10;1.00;;;;;;;11.50;83.68;99028.38;10496604;28;20171;-73
2021/05/07 14:03:47;;;;;;;2.20;1.80;;;;;;;10.56;89.86;99020.75;10494408;28;20250;-77
2021/05/07 14:09:07;;;;;;;3.80;1.43;;;;;;;11.62;89.40;99036.19;10500036;28;20593;-74
2021/05/07 14:14:26;;;;;;;1.20;0.90;;;;;;;11.40;70.83;99045.78;10503580;28;20206;-75
2021/05/07 14:19:45;;;;;;;1.73;1.07;;;;;;;11.06;74.53;99046.81;10501587;28;20171;-75
2021/05/07 14:25:05;;;;;;;1.37;1.27;;;;;;;10.75;76.43;99048.56;10502572;28;20207;-74
2021/05/07 14:30:25;;;;;;;2.77;1.63;;;;;;;9.96;79.49;99069.63;10502195;28;20304;-74
2021/05/07 14:35:44;;;;;;;1.70;1.20;;;;;;;9.68;80.05;99077.91;10502317;28;20179;-75
2021/05/07 14:41:03;;;;;;;2.27;1.40;;;;;;;10.29;89.44;99082.16;10502119;28;20269;-76
2021/05/07 14:46:22;;;;;;;1.40;1.30;;;;;;;10.91;74.76;99076.38;10501548;28;20175;-77
2021/05/07 14:51:41;;;;;;;1.20;0.97;;;;;;;10.21;74.89;99088.84;10501635;28;20207;-75
2021/05/07 14:57:00;;;;;;;2.40;1.57;;;;;;;11.40;70.82;99085.13;10502467;28;20175;-75
2021/05/07 15:02:19;;;;;;;1.57;1.37;;;;;;;10.62;68.51;99098.94;10501054;28;20549;-73
2021/05/07 15:07:44;;;;;;;1.77;1.17;;;;;;;10.01;72.72;99099.50;10502027;28;20179;-74
2021/05/07 15:13:03;;;;;;;1.10;0.83;;;;;;;9.79;73.64;99108.91;10500614;28;20202;-73
2021/05/07 15:18:22;;;;;;;1.23;1.13;;;;;;;9.27;79.61;99128.09;10499938;28;20167;-73
2021/05/07 15:23:41;;;;;;;1.33;0.87;;;;;;;9.19;76.04;99136.69;10500298;28;20202;-75
2021/05/07 15:29:03;;;;;;;1.63;0.63;;;;;;;10.39;69.42;99140.66;10500825;28;20226;-74
2021/05/07 15:34:22;;;;;;;1.10;0.70;;;;;;;10.99;67.02;99141.22;10499095;28;20206;-76
2021/05/07 15:39:41;;;;;;;2.03;1.90;;;;;;;11.55;64.56;99149.22;10499978;28;20175;-76
2021/05/07 15:45:00;;;;;;;1.00;0.83;;;;;;;11.70;62.46;99154.22;10499689;28;20202;-75
2021/05/07 15:50:19;;;;;;;1.13;0.80;;;;;;;11.70;65.31;99159.72;10499354;28;20210;-76
2021/05/07 15:55:37;;;;;;;1.47;0.87;;;;;;;11.81;62.47;99176.97;10500201;28;20175;-74
2021/05/07 16:00:56;;;;;;;3.13;1.10;;;;;;;12.14;59.84;99177.09;10498635;28;20573;-73
2021/05/07 16:06:15;;;;;;;0.90;0.50;;;;;;;11.65;58.32;99173.13;10499682;28;20183;-74
2021/05/07 16:11:34;;;;;;;2.10;1.57;;;;;;;11.69;58.09;99180.19;10498312;28;20202;-75
2021/05/07 16:16:53;;;;;;;1.30;1.20;;;;;;;11.32;57.78;99184.72;10498178;28;20651;-73
2021/05/07 16:22:13;;;;;;;1.00;0.77;;;;;;;11.69;60.37;99187.69;10497452;28;20190;-75
2021/05/07 16:27:31;;;;;;;2.20;1.23;;;;;;;11.56;59.33;99189.34;10498497;28;20293;-74
2021/05/07 16:32:52;;;;;;;1.40;0.97;;;;;;;11.33;55.44;99205.56;10496514;28;20661;-74
2021/05/07 16:38:14;;;;;;;0.97;0.70;;;;;;;11.28;57.33;99211.50;10498595;28;20186;-74
2021/05/07 16:43:33;;;;;;;3.23;1.33;;;;;;;10.93;59.47;99206.13;10497209;28;20250;-74
2021/05/07 16:48:52;;;;;;;1.53;1.30;;;;;;;10.96;58.52;99213.59;10497084;28;20174;-75
2021/05/07 16:54:11;;;;;;;1.20;1.10;;;;;;;11.06;58.68;99210.03;10497436;28;20297;-74
2021/05/07 16:59:29;;;;;;;1.47;1.17;;;;;;;10.97;58.48;99203.38;10497949;28;20178;-74
2021/05/07 17:04:48;;;;;;;0.93;0.60;;;;;;;11.10;55.71;99214.31;10496590;28;20210;-74
2021/05/07 17:10:08;;;;;;;1.33;1.07;;;;;;;10.89;56.28;99219.13;10497522;28;20171;-76
2021/05/07 17:15:28;;;;;;;1.50;1.03;;;;;;;11.10;55.25;99224.56;10496209;28;20171;-76
2021/05/07 17:20:47;;;;;;;0.90;0.60;;;;;;;11.79;48.35;99233.69;10496252;28;20540;-77
2021/05/07 17:26:06;;;;;;;0.97;0.73;;;;;;;10.66;49.09;99248.25;10495954;28;20222;-77
2021/05/07 17:31:25;;;;;;;1.10;0.80;;;;;;;10.36;52.65;99251.44;10495583;28;20255;-73
2021/05/07 17:36:44;;;;;;;1.03;0.73;;;;;;;10.67;52.32;99260.84;10496203;28;20179;-75
2021/05/07 17:42:03;;;;;;;7.10;4.10;;;;;;;11.98;48.20;99265.06;10497327;28;20621;-77
2021/05/07 17:47:22;;;;;;;1.73;1.17;;;;;;;12.85;45.92;99272.63;10503926;28;20175;-73
2021/05/07 17:52:42;;;;;;;1.80;1.70;;;;;;;11.23;49.07;99276.03;10504676;28;20210;-73
2021/05/07 17:58:02;;;;;;;1.13;1.00;;;;;;;10.10;52.24;99274.97;10504877;28;20245;-75
2021/05/07 18:03:21;;;;;;;1.20;0.90;;;;;;;9.75;54.62;99283.16;10503340;28;20261;-75
2021/05/07 18:08:40;;;;;;;1.10;0.90;;;;;;;9.48;56.45;99284.63;10504170;28;20183;-75
2021/05/07 18:13:58;;;;;;;1.30;1.17;;;;;;;9.28;57.58;99308.09;10503668;28;20202;-77
2021/05/07 18:19:17;;;;;;;1.20;0.80;;;;;;;9.07;59.19;99309.94;10502704;28;20171;-75
2021/05/07 18:24:37;;;;;;;1.53;0.90;;;;;;;8.95;60.30;99315.72;10503875;28;20199;-77
2021/05/07 18:29:56;;;;;;;3.43;1.83;;;;;;;8.82;61.99;99318.00;10501595;28;20305;-74
2021/05/07 18:35:17;;;;;;;1.40;1.30;;;;;;;8.66;63.27;99329.63;10503390;28;20182;-77
2021/05/07 18:40:38;;;;;;;1.30;1.00;;;;;;;8.45;64.62;99338.47;10502038;28;20634;-74
2021/05/07 18:45:56;;;;;;;1.80;1.70;;;;;;;8.24;65.71;99342.97;10501777;28;20170;-74
2021/05/07 18:51:15;;;;;;;3.63;1.87;;;;;;;8.00;67.26;99349.75;10501666;28;20237;-75
2021/05/07 18:56:35;;;;;;;1.93;0.70;;;;;;;7.88;67.96;99360.19;10502217;28;20673;-75
2021/05/07 19:01:55;;;;;;;1.20;1.10;;;;;;;7.80;69.49;99368.69;10500127;28;20178;-76
2021/05/07 19:07:14;;;;;;;1.40;1.07;;;;;;;7.68;70.40;99369.72;10501148;28;20166;-75
2021/05/07 19:12:33;;;;;;;0.90;0.70;;;;;;;7.46;72.29;99372.59;10501686;28;20206;-75
2021/05/07 19:17:54;;;;;;;3.00;1.23;;;;;;;7.15;74.40;99376.47;10499296;28;20210;-74
2021/05/07 19:23:14;;;;;;;5.80;2.90;;;;;;;6.88;76.41;99386.97;10501499;28;20198;-74
2021/05/07 19:28:33;;;;;;;12.03;5.37;;;;;;;6.71;75.86;99398.41;10500724;28;20214;-74
2021/05/07 19:33:52;;;;;;;2.30;2.17;;;;;;;6.91;74.95;99399.94;10499348;28;20199;-75
2021/05/07 19:39:11;;;;;;;3.50;3.20;;;;;;;6.87;74.65;99404.53;10500816;28;20182;-74
2021/05/07 19:44:31;;;;;;;4.20;2.77;;;;;;;6.69;77.44;99406.22;10500589;28;20265;-75
2021/05/07 19:49:50;;;;;;;1.87;1.33;;;;;;;6.49;80.16;99410.16;10499081;28;20179;-73
2021/05/07 19:55:10;;;;;;;1.13;1.03;;;;;;;6.17;82.59;99419.72;10499614;28;20194;-75
2021/05/07 20:00:29;;;;;;;1.40;1.10;;;;;;;5.91;83.64;99414.16;10497359;28;20174;-75
2021/05/07 20:05:49;;;;;;;3.47;3.17;;;;;;;5.85;84.77;99421.06;10497689;28;20183;-74
2021/05/07 20:11:08;;;;;;;2.10;2.00;;;;;;;5.91;84.28;99424.28;10499346;28;20202;-74
2021/05/07 20:16:27;;;;;;;4.27;2.70;;;;;;;5.81;84.54;99422.94;10496774;28;20178;-73
2021/05/07 20:21:46;;;;;;;3.43;2.40;;;;;;;5.64;86.08;99417.88;10498968;28;20230;-74
2021/05/07 20:27:06;;;;;;;1.30;1.20;;;;;;;5.62;88.29;99416.63;10497624;28;20218;-73
2021/05/07 20:32:25;;;;;;;6.63;1.67;;;;;;;5.34;90.86;99428.88;10496023;28;20198;-73
2021/05/07 20:37:44;;;;;;;0.93;0.83;;;;;;;5.15;94.70;99437.03;10498580;28;20174;-74
2021/05/07 20:43:03;;;;;;;1.10;0.97;;;;;;;5.06;93.83;99441.88;10497393;28;20170;-74
2021/05/07 20:48:22;;;;;;;0.90;0.63;;;;;;;4.79;96.25;99438.13;10496931;28;20175;-73
2021/05/07 20:53:42;;;;;;;0.90;0.70;;;;;;;4.64;100.00;99438.13;10497591;28;20206;-75
2021/05/07 20:59:03;;;;;;;1.50;1.40;;;;;;;4.54;100.00;99443.31;10498082;28;20171;-75
2021/05/07 21:04:22;;;;;;;1.00;0.90;;;;;;;4.30;100.00;99436.09;10496487;28;20167;-74
2021/05/07 21:09:41;;;;;;;2.07;1.70;;;;;;;4.18;100.00;99430.72;10497823;28;20182;-74
2021/05/07 21:15:00;;;;;;;1.60;1.40;;;;;;;4.37;100.00;99441.72;10496162;28;20210;-74
2021/05/07 21:20:20;;;;;;;6.70;3.20;;;;;;;4.13;100.00;99438.34;10496454;28;20556;-74
2021/05/07 21:25:39;;;;;;;4.57;3.40;;;;;;;3.89;100.00;99438.47;10497331;28;20167;-73
2021/05/07 21:30:58;;;;;;;3.93;1.60;;;;;;;3.93;100.00;99440.16;10495840;28;20202;-73
2021/05/07 21:36:17;;;;;;;1.20;0.80;;;;;;;3.85;100.00;99444.94;10497154;28;20670;-74
2021/05/07 21:41:36;;;;;;;0.90;0.60;;;;;;;3.82;100.00;99442.91;10496869;28;20167;-74
2021/05/07 21:46:55;;;;;;;1.30;0.80;;;;;;;3.76;100.00;99445.06;10495850;28;20202;-73
2021/05/07 21:52:14;;;;;;;0.87;0.47;;;;;;;3.58;100.00;99451.13;10495420;28;20202;-75
2021/05/07 21:57:34;;;;;;;0.90;0.70;;;;;;;3.35;100.00;99450.06;10496848;28;20178;-73
2021/05/07 22:02:53;;;;;;;1.20;1.10;;;;;;;3.22;100.00;99456.69;10495244;28;20167;-73
2021/05/07 22:08:13;;;;;;;1.10;0.90;;;;;;;3.14;100.00;99454.88;10495552;28;20174;-73
2021/05/07 22:13:32;;;;;;;3.43;1.60;;;;;;;3.13;100.00;99455.19;10495989;28;20202;-73
2021/05/07 22:18:52;;;;;;;1.93;1.50;;;;;;;3.16;100.00;99460.75;10494052;28;20605;-74
2021/05/07 22:24:10;;;;;;;2.07;1.23;;;;;;;3.15;100.00;99462.69;10496097;28;20203;-73
2021/05/07 22:29:29;;;;;;;5.60;4.10;;;;;;;2.85;100.00;99468.69;10497875;28;20222;-74
2021/05/07 22:34:48;;;;;;;4.80;3.53;;;;;;;2.69;100.00;99473.19;10501403;28;20202;-74
2021/05/07 22:40:09;;;;;;;4.20;2.80;;;;;;;2.70;100.00;99479.44;10503251;28;20281;-74
2021/05/07 22:45:30;;;;;;;1.43;1.23;;;;;;;2.76;100.00;99470.72;10501883;28;20174;-75
2021/05/07 22:50:49;;;;;;;3.53;3.33;;;;;;;2.72;100.00;99477.97;10501757;28;20195;-74
2021/05/07 22:56:08;;;;;;;4.27;2.97;;;;;;;2.67;100.00;99478.16;10502631;28;20202;-73
2021/05/07 23:01:27;;;;;;;2.30;2.20;;;;;;;2.54;100.00;99473.09;10499868;28;20163;-73
2021/05/07 23:06:46;;;;;;;5.13;2.20;;;;;;;2.55;100.00;99480.88;10502538;28;20214;-73
2021/05/07 23:12:05;;;;;;;1.70;1.60;;;;;;;2.41;100.00;99477.69;10501844;28;20256;-73
2021/05/07 23:17:24;;;;;;;3.80;2.00;;;;;;;2.25;100.00;99472.44;10500613;28;20529;-74
2021/05/07 23:22:43;;;;;;;8.20;3.00;;;;;;;2.28;100.00;99472.56;10500505;28;20657;-77
2021/05/07 23:28:02;;;;;;;2.53;2.10;;;;;;;2.18;100.00;99478.41;10500764;28;20561;-77
2021/05/07 23:33:21;;;;;;;12.47;8.60;;;;;;;2.05;100.00;99486.84;10498198;28;20656;-74
2021/05/07 23:38:40;;;;;;;4.40;3.50;;;;;;;2.07;100.00;99477.25;10500873;28;20183;-74
2021/05/07 23:43:59;;;;;;;1.23;1.10;;;;;;;1.96;100.00;99481.50;10499805;28;20174;-73
2021/05/07 23:49:18;;;;;;;1.60;1.50;;;;;;;1.82;100.00;99474.78;10499251;28;20178;-74
2021/05/07 23:54:37;;;;;;;1.30;0.90;;;;;;;1.74;100.00;99470.22;10498748;28;20676;-75
2021/05/07 23:59:56;;;;;;;4.70;2.60;;;;;;;1.67;100.00;99470.75;10500038;28;20182;-74
